Time,TemperatureF,DewpointF,PressureIn,WindDirection,WindDirectionDegrees,WindSpeedMPH,WindSpeedGustMPH,Humidity,HourlyPrecipIn,Conditions,Clouds,dailyrainin,SoftwareType,DateUTC
2013-01-08 00:00:00,20.7,19.0,30.24,NW,325,0.0,0.0,94,0.00,,,0.00,weatherlink.com 1.10,2013-01-08 06:00:00,
2013-01-08 00:15:00,20.5,19.0,30.25,NW,325,0.0,0.0,93,0.00,,,0.00,weatherlink.com 1.10,2013-01-08 06:15:00,
2013-01-08 00:30:00,20.3,19.0,30.25,NW,325,0.0,0.0,94,0.00,,,0.00,weatherlink.com 1.10,2013-01-08 06:30:00,
2013-01-08 00:46:00,20.4,19.0,30.25,NW,325,0.0,0.0,94,0.00,,,0.00,weatherlink.com 1.10,2013-01-08 06:46:00,
2013-01-08 01:01:00,20.7,19.0,30.25,NW,325,0.0,0.0,94,0.00,,,0.00,weatherlink.com 1.10,2013-01-08 07:01:00,
2013-01-08 01:16:00,21.0,20.0,30.25,NW,325,0.0,0.0,95,0.00,,,0.00,weatherlink.com 1.10,2013-01-08 07:16:00,
2013-01-08 01:31:00,21.2,20.0,30.25,NW,325,0.0,0.0,94,0.00,,,0.00,weatherlink.com 1.10,2013-01-08 07:31:00,
2013-01-08 01:46:00,21.5,20.0,30.25,NW,325,0.0,0.0,95,0.00,,,0.00,weatherlink.com 1.10,2013-01-08 07:46:00,
2013-01-08 02:01:00,21.8,20.0,30.25,NW,325,0.0,0.0,94,0.00,,,0.00,weatherlink.com 1.10,2013-01-08 08:01:00,
2013-01-08 02:16:00,21.8,20.0,30.25,NW,325,0.0,1.0,94,0.00,,,0.00,weatherlink.com 1.10,2013-01-08 08:16:00,
2013-01-08 02:31:00,21.9,21.0,30.25,NW,325,0.0,0.0,94,0.00,,,0.00,weatherlink.com 1.10,2013-01-08 08:31:00,
2013-01-08 02:46:00,21.9,21.0,30.25,NW,325,0.0,0.0,94,0.00,,,0.00,weatherlink.com 1.10,2013-01-08 08:46:00,
2013-01-08 03:01:00,21.9,21.0,30.24,NW,325,0.0,0.0,94,0.00,,,0.00,weatherlink.com 1.10,2013-01-08 09:01:00,
2013-01-08 03:16:00,21.8,20.0,30.23,NW,325,0.0,0.0,94,0.00,,,0.00,weatherlink.com 1.10,2013-01-08 09:16:00,
2013-01-08 03:31:00,21.6,20.0,30.23,NW,325,0.0,0.0,94,0.00,,,0.00,weatherlink.com 1.10,2013-01-08 09:31:00,
2013-01-08 03:46:00,21.7,20.0,30.23,NW,325,0.0,0.0,94,0.00,,,0.00,weatherlink.com 1.10,2013-01-08 09:46:00,
2013-01-08 04:01:00,21.7,20.0,30.23,NW,325,0.0,0.0,94,0.00,,,0.00,weatherlink.com 1.10,2013-01-08 10:01:00,
2013-01-08 04:16:00,21.9,21.0,30.23,NW,325,0.0,0.0,95,0.00,,,0.00,weatherlink.com 1.10,2013-01-08 10:16:00,
2013-01-08 04:31:00,22.1,21.0,30.24,NW,325,0.0,0.0,95,0.00,,,0.00,weatherlink.com 1.10,2013-01-08 10:31:00,
2013-01-08 04:46:00,22.1,21.0,30.24,NW,325,0.0,0.0,94,0.00,,,0.00,weatherlink.com 1.10,2013-01-08 10:46:00,
2013-01-08 05:01:00,22.2,21.0,30.24,NW,325,0.0,0.0,95,0.00,,,0.00,weatherlink.com 1.10,2013-01-08 11:01:00,
2013-01-08 05:16:00,22.0,21.0,30.24,NW,325,0.0,0.0,94,0.00,,,0.00,weatherlink.com 1.10,2013-01-08 11:16:00,
2013-01-08 05:31:00,21.7,20.0,30.26,NW,325,0.0,0.0,94,0.00,,,0.00,weatherlink.com 1.10,2013-01-08 11:31:00,
2013-01-08 05:46:00,21.4,20.0,30.25,NW,325,0.0,0.0,94,0.00,,,0.00,weatherlink.com 1.10,2013-01-08 11:46:00,
2013-01-08 06:01:00,21.0,20.0,30.26,NW,325,0.0,0.0,94,0.00,,,0.00,weatherlink.com 1.10,2013-01-08 12:01:00,
2013-01-08 06:16:00,20.6,19.0,30.27,NW,325,0.0,0.0,94,0.00,,,0.00,weatherlink.com 1.10,2013-01-08 12:16:00,
2013-01-08 06:31:00,20.2,19.0,30.27,NW,325,0.0,0.0,93,0.00,,,0.00,weatherlink.com 1.10,2013-01-08 12:31:00,
2013-01-08 06:46:00,19.8,18.0,30.27,NW,325,0.0,0.0,93,0.00,,,0.00,weatherlink.com 1.10,2013-01-08 12:46:00,
2013-01-08 07:01:00,19.5,18.0,30.28,NW,325,0.0,0.0,93,0.00,,,0.00,weatherlink.com 1.10,2013-01-08 13:01:00,
2013-01-08 07:16:00,19.6,18.0,30.28,NW,325,0.0,0.0,94,0.00,,,0.00,weatherlink.com 1.10,2013-01-08 13:16:00,
2013-01-08 07:31:00,19.9,19.0,30.29,NW,325,0.0,0.0,95,0.00,,,0.00,weatherlink.com 1.10,2013-01-08 13:31:00,
2013-01-08 07:46:00,20.8,20.0,30.29,NW,325,0.0,0.0,96,0.00,,,0.00,weatherlink.com 1.10,2013-01-08 13:46:00,
2013-01-08 08:01:00,22.2,21.0,30.29,NW,325,0.0,0.0,96,0.00,,,0.00,weatherlink.com 1.10,2013-01-08 14:01:00,
2013-01-08 08:16:00,23.6,23.0,30.30,NW,325,0.0,0.0,96,0.00,,,0.00,weatherlink.com 1.10,2013-01-08 14:16:00,
2013-01-08 08:31:00,24.8,24.0,30.30,NW,325,0.0,0.0,97,0.00,,,0.00,weatherlink.com 1.10,2013-01-08 14:31:00,
2013-01-08 08:46:00,26.0,25.0,30.31,NW,325,0.0,0.0,96,0.00,,,0.00,weatherlink.com 1.10,2013-01-08 14:46:00,
2013-01-08 09:01:00,28.0,27.0,30.31,NW,325,0.0,0.0,97,0.00,,,0.00,weatherlink.com 1.10,2013-01-08 15:01:00,
2013-01-08 09:16:00,31.6,31.0,30.31,NW,325,0.0,0.0,97,0.00,,,0.00,weatherlink.com 1.10,2013-01-08 15:16:00,
2013-01-08 09:32:00,36.7,36.0,30.31,South,177,4.0,4.0,97,0.00,,,0.00,weatherlink.com 1.10,2013-01-08 15:32:00,
2013-01-08 09:47:00,41.3,35.0,30.30,South,186,0.0,7.0,78,0.00,,,0.00,weatherlink.com 1.10,2013-01-08 15:47:00,
2013-01-08 10:02:00,43.1,36.0,30.30,South,182,3.0,7.0,75,0.00,,,0.00,weatherlink.com 1.10,2013-01-08 16:02:00,
2013-01-08 10:17:00,44.6,36.0,30.30,SW,224,1.0,6.0,71,0.00,,,0.00,weatherlink.com 1.10,2013-01-08 16:17:00,
2013-01-08 10:32:00,45.3,36.0,30.29,SSE,168,3.0,6.0,70,0.00,,,0.00,weatherlink.com 1.10,2013-01-08 16:32:00,
2013-01-08 10:47:00,46.3,35.0,30.28,East,101,2.0,4.0,66,0.00,,,0.00,weatherlink.com 1.10,2013-01-08 16:47:00,
2013-01-08 11:02:00,47.4,36.0,30.28,SE,139,2.0,6.0,65,0.00,,,0.00,weatherlink.com 1.10,2013-01-08 17:02:00,
2013-01-08 11:17:00,48.2,36.0,30.27,SSE,166,3.0,4.0,63,0.00,,,0.00,weatherlink.com 1.10,2013-01-08 17:17:00,
2013-01-08 11:32:00,49.6,36.0,30.26,SSE,152,6.0,8.0,61,0.00,,,0.00,weatherlink.com 1.10,2013-01-08 17:32:00,
2013-01-08 11:47:00,50.8,36.0,30.25,SSW,197,1.0,8.0,57,0.00,,,0.00,weatherlink.com 1.10,2013-01-08 17:47:00,
2013-01-08 12:02:00,51.6,37.0,30.24,SSW,208,3.0,8.0,57,0.00,,,0.00,weatherlink.com 1.10,2013-01-08 18:02:00,
2013-01-08 12:17:00,52.6,36.0,30.24,SSW,211,2.0,7.0,54,0.00,,,0.00,weatherlink.com 1.10,2013-01-08 18:17:00,
2013-01-08 12:32:00,53.5,37.0,30.23,SW,235,9.0,9.0,54,0.00,,,0.00,weatherlink.com 1.10,2013-01-08 18:32:00,
2013-01-08 12:47:00,53.6,36.0,30.23,SSE,148,5.0,8.0,51,0.00,,,0.00,weatherlink.com 1.10,2013-01-08 18:47:00,
2013-01-08 13:02:00,54.0,36.0,30.21,SW,223,5.0,9.0,51,0.00,,,0.00,weatherlink.com 1.10,2013-01-08 19:02:00,
2013-01-08 13:17:00,54.0,37.0,30.21,SW,221,2.0,6.0,52,0.00,,,0.00,weatherlink.com 1.10,2013-01-08 19:17:00,
2013-01-08 13:32:00,54.6,36.0,30.21,SE,144,2.0,8.0,49,0.00,,,0.00,weatherlink.com 1.10,2013-01-08 19:32:00,
2013-01-08 13:47:00,54.6,36.0,30.21,SSE,163,3.0,6.0,50,0.00,,,0.00,weatherlink.com 1.10,2013-01-08 19:47:00,
2013-01-08 14:03:00,54.7,36.0,30.21,South,182,4.0,7.0,49,0.00,,,0.00,weatherlink.com 1.10,2013-01-08 20:03:00,
2013-01-08 14:17:00,55.0,35.0,30.21,SSE,152,2.0,7.0,47,0.00,,,0.00,weatherlink.com 1.10,2013-01-08 20:17:00,
2013-01-08 14:32:00,54.8,36.0,30.21,SSE,167,2.0,9.0,49,0.00,,,0.00,weatherlink.com 1.10,2013-01-08 20:32:00,
2013-01-08 14:47:00,54.6,35.0,30.21,SSE,163,3.0,9.0,48,0.00,,,0.00,weatherlink.com 1.10,2013-01-08 20:47:00,
2013-01-08 15:02:00,54.4,34.0,30.21,South,182,6.0,10.0,47,0.00,,,0.00,weatherlink.com 1.10,2013-01-08 21:02:00,
2013-01-08 15:18:00,54.2,35.0,30.21,SSE,155,0.0,5.0,49,0.00,,,0.00,weatherlink.com 1.10,2013-01-08 21:18:00,
2013-01-08 15:32:00,53.9,35.0,30.21,SSE,155,0.0,4.0,49,0.00,,,0.00,weatherlink.com 1.10,2013-01-08 21:32:00,
2013-01-08 15:47:00,53.5,35.0,30.20,SSE,154,0.0,2.0,50,0.00,,,0.00,weatherlink.com 1.10,2013-01-08 21:47:00,
2013-01-08 16:02:00,52.9,36.0,30.20,SE,140,0.0,3.0,53,0.00,,,0.00,weatherlink.com 1.10,2013-01-08 22:02:00,
2013-01-08 16:17:00,51.9,36.0,30.19,SE,140,0.0,0.0,56,0.00,,,0.00,weatherlink.com 1.10,2013-01-08 22:17:00,
2013-01-08 16:32:00,50.7,36.0,30.20,SE,140,0.0,0.0,58,0.00,,,0.00,weatherlink.com 1.10,2013-01-08 22:32:00,
2013-01-08 16:47:00,48.5,36.0,30.20,SE,140,0.0,0.0,62,0.00,,,0.00,weatherlink.com 1.10,2013-01-08 22:47:00,
2013-01-08 17:02:00,46.5,36.0,30.21,SE,140,0.0,0.0,66,0.00,,,0.00,weatherlink.com 1.10,2013-01-08 23:02:00,
2013-01-08 17:17:00,43.8,35.0,30.22,SE,140,0.0,0.0,70,0.00,,,0.00,weatherlink.com 1.10,2013-01-08 23:17:00,
2013-01-08 17:32:00,41.9,33.0,30.22,SE,140,0.0,0.0,72,0.00,,,0.00,weatherlink.com 1.10,2013-01-08 23:32:00,
2013-01-08 17:47:00,40.4,33.0,30.22,SE,140,0.0,0.0,76,0.00,,,0.00,weatherlink.com 1.10,2013-01-08 23:47:00,
2013-01-08 18:02:00,39.5,33.0,30.22,SE,140,0.0,0.0,77,0.00,,,0.00,weatherlink.com 1.10,2013-01-09 00:02:00,
2013-01-08 18:18:00,38.5,33.0,30.22,SE,140,0.0,0.0,79,0.00,,,0.00,weatherlink.com 1.10,2013-01-09 00:18:00,
2013-01-08 18:33:00,37.7,32.0,30.21,SE,140,0.0,0.0,80,0.00,,,0.00,weatherlink.com 1.10,2013-01-09 00:33:00,
2013-01-08 18:48:00,37.2,33.0,30.21,SE,140,0.0,0.0,84,0.00,,,0.00,weatherlink.com 1.10,2013-01-09 00:48:00,
2013-01-08 19:03:00,37.0,32.0,30.21,SE,140,0.0,0.0,83,0.00,,,0.00,weatherlink.com 1.10,2013-01-09 01:03:00,
2013-01-08 19:18:00,36.8,33.0,30.21,SE,140,0.0,0.0,86,0.00,,,0.00,weatherlink.com 1.10,2013-01-09 01:18:00,
2013-01-08 19:33:00,36.6,33.0,30.21,SE,140,0.0,0.0,85,0.00,,,0.00,weatherlink.com 1.10,2013-01-09 01:33:00,
2013-01-08 19:48:00,36.5,33.0,30.20,SE,140,0.0,0.0,86,0.00,,,0.00,weatherlink.com 1.10,2013-01-09 01:48:00,
2013-01-08 20:03:00,36.3,33.0,30.20,SE,140,0.0,0.0,86,0.00,,,0.00,weatherlink.com 1.10,2013-01-09 02:03:00,
2013-01-08 20:18:00,36.4,33.0,30.20,SE,140,0.0,0.0,88,0.00,,,0.00,weatherlink.com 1.10,2013-01-09 02:18:00,
2013-01-08 20:33:00,36.4,33.0,30.21,SE,140,0.0,0.0,87,0.00,,,0.00,weatherlink.com 1.10,2013-01-09 02:33:00,
2013-01-08 20:48:00,36.5,33.0,30.21,SE,140,0.0,0.0,88,0.00,,,0.00,weatherlink.com 1.10,2013-01-09 02:48:00,
2013-01-08 21:03:00,36.7,34.0,30.21,SE,140,0.0,0.0,89,0.00,,,0.00,weatherlink.com 1.10,2013-01-09 03:03:00,
2013-01-08 21:17:00,36.8,34.0,30.21,SE,140,0.0,0.0,89,0.00,,,0.00,weatherlink.com 1.10,2013-01-09 03:17:00,
2013-01-08 21:32:00,36.9,34.0,30.21,SE,140,0.0,0.0,88,0.00,,,0.00,weatherlink.com 1.10,2013-01-09 03:32:00,
2013-01-08 21:47:00,36.9,34.0,30.21,SE,140,0.0,0.0,88,0.00,,,0.00,weatherlink.com 1.10,2013-01-09 03:47:00,
2013-01-08 22:02:00,36.8,34.0,30.21,SE,140,0.0,0.0,88,0.00,,,0.00,weatherlink.com 1.10,2013-01-09 04:02:00,
2013-01-08 22:17:00,36.6,33.0,30.21,SE,140,0.0,0.0,88,0.00,,,0.00,weatherlink.com 1.10,2013-01-09 04:17:00,
2013-01-08 22:32:00,36.5,33.0,30.21,SE,140,0.0,0.0,88,0.00,,,0.00,weatherlink.com 1.10,2013-01-09 04:32:00,
2013-01-08 22:47:00,36.5,34.0,30.22,SE,140,0.0,0.0,89,0.00,,,0.00,weatherlink.com 1.10,2013-01-09 04:47:00,
2013-01-08 23:02:00,36.4,34.0,30.22,SE,140,0.0,0.0,89,0.00,,,0.00,weatherlink.com 1.10,2013-01-09 05:02:00,
2013-01-08 23:17:00,36.4,34.0,30.23,SE,140,0.0,0.0,89,0.00,,,0.00,weatherlink.com 1.10,2013-01-09 05:17:00,
2013-01-08 23:47:00,36.6,34.0,30.24,SE,140,0.0,0.0,90,0.00,,,0.00,weatherlink.com 1.10,2013-01-09 05:47:00,